ASA1449 KLAX-KSFO
Flight info
| Callsign | ASA1449 |
|---|---|
| Flight time | N/A |
| Altitude | 38000 |
| Route | SUMMR2 STOKD DCT SERFR SERFR4 |
| Aircraft | B739/M-SDE2E3FGHIRWXY/LB1 |
Departure
| Time | 2026-04-20 02:30 |
|---|---|
| Airport | Los Angeles International Airport (KLAX) |
Arrival
| Time | N/A |
|---|---|
| Airport | San Francisco International Airport (KSFO) |
| Time | Latitude | Longitude | Altitude | Speed | Heading |
|---|---|---|---|---|---|
| 2026-04-20 01:51 | 33.94144 | -118.40275 | 94 ft | 0 kts | 86° |
| 2026-04-20 02:05 | 33.94144 | -118.40276 | 94 ft | 1 kts | 86° |
| 2026-04-20 02:06 | 33.94143 | -118.40294 | 96 ft | 3 kts | 86° |
| 2026-04-20 02:06 | 33.94142 | -118.40316 | 94 ft | 3 kts | 110° |
| 2026-04-20 02:06 | 33.94151 | -118.40330 | 94 ft | 3 kts | 166° |
| 2026-04-20 02:06 | 33.94155 | -118.40332 | 94 ft | 2 kts | 173° |
| 2026-04-20 02:07 | 33.94137 | -118.40329 | 95 ft | 3 kts | 173° |
| 2026-04-20 02:07 | 33.94117 | -118.40326 | 95 ft | 3 kts | 173° |
| 2026-04-20 02:07 | 33.94097 | -118.40323 | 95 ft | 3 kts | 173° |
| 2026-04-20 02:07 | 33.94077 | -118.40321 | 96 ft | 3 kts | 173° |
| 2026-04-20 02:08 | 33.94057 | -118.40318 | 96 ft | 3 kts | 173° |
| 2026-04-20 02:08 | 33.94038 | -118.40315 | 97 ft | 2 kts | 173° |
| 2026-04-20 02:08 | 33.94034 | -118.40314 | 96 ft | 0 kts | 173° |
| 2026-04-20 02:20 | 33.94027 | -118.40313 | 96 ft | 6 kts | 172° |
| 2026-04-20 02:20 | 33.93964 | -118.40301 | 98 ft | 9 kts | 175° |
| 2026-04-20 02:20 | 33.93927 | -118.40345 | 99 ft | 8 kts | 251° |
| 2026-04-20 02:21 | 33.93913 | -118.40471 | 97 ft | 7 kts | 264° |
| 2026-04-20 02:21 | 33.93908 | -118.40532 | 97 ft | 8 kts | 264° |
| 2026-04-20 02:21 | 33.93899 | -118.40618 | 98 ft | 13 kts | 263° |
| 2026-04-20 02:22 | 33.93888 | -118.40723 | 96 ft | 8 kts | 262° |
| 2026-04-20 02:22 | 33.93885 | -118.40751 | 99 ft | 6 kts | 262° |
| 2026-04-20 02:22 | 33.93875 | -118.40844 | 96 ft | 16 kts | 263° |
| 2026-04-20 02:22 | 33.93861 | -118.40989 | 98 ft | 17 kts | 263° |
| 2026-04-20 02:23 | 33.93849 | -118.41114 | 97 ft | 11 kts | 266° |
| 2026-04-20 02:23 | 33.93899 | -118.41166 | 96 ft | 10 kts | 351° |
| 2026-04-20 02:23 | 33.93971 | -118.41177 | 95 ft | 11 kts | 353° |
| 2026-04-20 02:23 | 33.94068 | -118.41192 | 94 ft | 16 kts | 353° |
| 2026-04-20 02:24 | 33.94179 | -118.41209 | 94 ft | 16 kts | 353° |
| 2026-04-20 02:24 | 33.94286 | -118.41224 | 94 ft | 15 kts | 353° |
| 2026-04-20 02:24 | 33.94389 | -118.41239 | 96 ft | 15 kts | 353° |
| 2026-04-20 02:24 | 33.94487 | -118.41254 | 94 ft | 14 kts | 353° |
| 2026-04-20 02:25 | 33.94581 | -118.41268 | 95 ft | 13 kts | 353° |
| 2026-04-20 02:25 | 33.94671 | -118.41281 | 97 ft | 13 kts | 353° |
| 2026-04-20 02:25 | 33.94752 | -118.41293 | 97 ft | 9 kts | 354° |
| 2026-04-20 02:25 | 33.94794 | -118.41254 | 100 ft | 8 kts | 75° |
| 2026-04-20 02:26 | 33.94803 | -118.41186 | 99 ft | 8 kts | 82° |
| 2026-04-20 02:26 | 33.94812 | -118.41102 | 100 ft | 12 kts | 83° |
| 2026-04-20 02:26 | 33.94822 | -118.40997 | 100 ft | 14 kts | 84° |
| 2026-04-20 02:26 | 33.94835 | -118.40871 | 99 ft | 17 kts | 83° |
| 2026-04-20 02:27 | 33.94850 | -118.40722 | 99 ft | 19 kts | 83° |
| 2026-04-20 02:27 | 33.94868 | -118.40559 | 99 ft | 19 kts | 83° |
| 2026-04-20 02:27 | 33.94884 | -118.40399 | 99 ft | 19 kts | 83° |
| 2026-04-20 02:27 | 33.94900 | -118.40245 | 99 ft | 18 kts | 83° |
| 2026-04-20 02:28 | 33.94915 | -118.40096 | 99 ft | 18 kts | 83° |
| 2026-04-20 02:28 | 33.94927 | -118.39971 | 99 ft | 11 kts | 78° |
| 2026-04-20 02:28 | 33.94939 | -118.39940 | 99 ft | 0 kts | 57° |
| 2026-04-20 02:29 | 33.94942 | -118.39935 | 99 ft | 4 kts | 50° |
| 2026-04-20 02:29 | 33.94983 | -118.39912 | 104 ft | 7 kts | 8° |
| 2026-04-20 02:29 | 33.95037 | -118.39940 | 108 ft | 8 kts | 293° |
| 2026-04-20 02:29 | 33.95037 | -118.40003 | 108 ft | 13 kts | 263° |
| 2026-04-20 02:30 | 33.94996 | -118.40402 | 108 ft | 83 kts | 263° |
| 2026-04-20 02:30 | 33.94898 | -118.41350 | 108 ft | 142 kts | 262° |
| 2026-04-20 02:30 | 33.94754 | -118.42674 | 354 ft | 168 kts | 262° |
| 2026-04-20 02:30 | 33.94601 | -118.44098 | 993 ft | 176 kts | 262° |
| 2026-04-20 02:31 | 33.94442 | -118.45566 | 1685 ft | 181 kts | 262° |
| 2026-04-20 02:31 | 33.94289 | -118.47088 | 2268 ft | 187 kts | 262° |
| 2026-04-20 02:31 | 33.94139 | -118.48675 | 2854 ft | 197 kts | 262° |
| 2026-04-20 02:31 | 33.93972 | -118.50346 | 3409 ft | 206 kts | 259° |
| 2026-04-20 02:32 | 33.93846 | -118.52142 | 3744 ft | 226 kts | 265° |
| 2026-04-20 02:32 | 33.93773 | -118.54142 | 3938 ft | 251 kts | 266° |
| 2026-04-20 02:32 | 33.93699 | -118.56340 | 4260 ft | 275 kts | 265° |
| 2026-04-20 02:32 | 33.93586 | -118.58705 | 4873 ft | 284 kts | 264° |
| 2026-04-20 02:33 | 33.93427 | -118.61035 | 5961 ft | 278 kts | 263° |
| 2026-04-20 02:33 | 33.93249 | -118.63363 | 6755 ft | 281 kts | 262° |
| 2026-04-20 02:33 | 33.93065 | -118.65710 | 7569 ft | 282 kts | 262° |
| 2026-04-20 02:33 | 33.92881 | -118.68073 | 8372 ft | 284 kts | 262° |
| 2026-04-20 02:34 | 33.92696 | -118.70452 | 9165 ft | 287 kts | 262° |
| 2026-04-20 02:34 | 33.92509 | -118.72856 | 9954 ft | 290 kts | 262° |
| 2026-04-20 02:34 | 33.92317 | -118.75308 | 10455 ft | 303 kts | 262° |
| 2026-04-20 02:34 | 33.92110 | -118.77933 | 10621 ft | 327 kts | 262° |
| 2026-04-20 02:35 | 33.91887 | -118.80744 | 10798 ft | 348 kts | 262° |
| 2026-04-20 02:35 | 33.91666 | -118.83703 | 11221 ft | 359 kts | 264° |
| 2026-04-20 02:35 | 33.91659 | -118.86736 | 11832 ft | 365 kts | 269° |
| 2026-04-20 02:35 | 33.91730 | -118.89831 | 11796 ft | 370 kts | 270° |
| 2026-04-20 02:36 | 33.91859 | -118.92929 | 12149 ft | 372 kts | 270° |
| 2026-04-20 02:36 | 33.92001 | -118.96033 | 12961 ft | 370 kts | 270° |
| 2026-04-20 02:36 | 33.92195 | -118.99123 | 13703 ft | 373 kts | 276° |
| 2026-04-20 02:36 | 33.92561 | -119.01158 | 14093 ft | 378 kts | 283° |
| 2026-04-20 02:37 | 33.93489 | -119.04139 | 14691 ft | 383 kts | 294° |
| 2026-04-20 02:37 | 33.94839 | -119.06922 | 15310 ft | 387 kts | 300° |
| 2026-04-20 02:37 | 33.96307 | -119.09652 | 15912 ft | 390 kts | 300° |
| 2026-04-20 02:37 | 33.97775 | -119.12408 | 16499 ft | 392 kts | 300° |
| 2026-04-20 02:38 | 33.99229 | -119.15192 | 17085 ft | 394 kts | 299° |
| 2026-04-20 02:38 | 34.00827 | -119.17903 | 17660 ft | 399 kts | 308° |
| 2026-04-20 02:38 | 34.02798 | -119.20284 | 18214 ft | 405 kts | 319° |
| 2026-04-20 02:38 | 34.05071 | -119.22319 | 18718 ft | 408 kts | 322° |
| 2026-04-20 02:39 | 34.07401 | -119.24286 | 19223 ft | 410 kts | 323° |
| 2026-04-20 02:39 | 34.09748 | -119.26247 | 19718 ft | 412 kts | 323° |
| 2026-04-20 02:39 | 34.12106 | -119.28229 | 20235 ft | 414 kts | 323° |
| 2026-04-20 02:39 | 34.14464 | -119.30229 | 20743 ft | 415 kts | 322° |
| 2026-04-20 02:40 | 34.16827 | -119.32249 | 21241 ft | 417 kts | 322° |
| 2026-04-20 02:40 | 34.19194 | -119.34284 | 21725 ft | 419 kts | 322° |
| 2026-04-20 02:40 | 34.21576 | -119.36339 | 22182 ft | 421 kts | 322° |
| 2026-04-20 02:40 | 34.23966 | -119.38403 | 22634 ft | 424 kts | 322° |
| 2026-04-20 02:41 | 34.26371 | -119.40482 | 23098 ft | 426 kts | 322° |
| 2026-04-20 02:41 | 34.28789 | -119.42573 | 23540 ft | 429 kts | 322° |
| 2026-04-20 02:41 | 34.31224 | -119.44680 | 23896 ft | 431 kts | 322° |
| 2026-04-20 02:41 | 34.33665 | -119.46794 | 24268 ft | 433 kts | 322° |
| 2026-04-20 02:42 | 34.36120 | -119.48921 | 24656 ft | 435 kts | 322° |
| 2026-04-20 02:42 | 34.38580 | -119.51053 | 25050 ft | 436 kts | 322° |
| 2026-04-20 02:42 | 34.41029 | -119.53222 | 25440 ft | 436 kts | 319° |
| 2026-04-20 02:42 | 34.43261 | -119.55708 | 25813 ft | 436 kts | 312° |
| 2026-04-20 02:43 | 34.45390 | -119.58329 | 26178 ft | 437 kts | 312° |
| 2026-04-20 02:43 | 34.47511 | -119.60983 | 26509 ft | 440 kts | 311° |
| 2026-04-20 02:43 | 34.49640 | -119.63653 | 26867 ft | 441 kts | 311° |
| 2026-04-20 02:43 | 34.51780 | -119.66325 | 27234 ft | 442 kts | 312° |
| 2026-04-20 02:44 | 34.53931 | -119.68998 | 27595 ft | 444 kts | 312° |
| 2026-04-20 02:44 | 34.56094 | -119.71676 | 27941 ft | 445 kts | 312° |
| 2026-04-20 02:44 | 34.58268 | -119.74364 | 28270 ft | 447 kts | 312° |
| 2026-04-20 02:44 | 34.60454 | -119.77064 | 28595 ft | 449 kts | 312° |
| 2026-04-20 02:45 | 34.62649 | -119.79776 | 28922 ft | 451 kts | 312° |
| 2026-04-20 02:45 | 34.64852 | -119.82499 | 29292 ft | 452 kts | 312° |
| 2026-04-20 02:45 | 34.67051 | -119.85219 | 29783 ft | 450 kts | 312° |
| 2026-04-20 02:45 | 34.69231 | -119.87918 | 30333 ft | 446 kts | 312° |
| 2026-04-20 02:46 | 34.71394 | -119.90598 | 30799 ft | 443 kts | 312° |
| 2026-04-20 02:46 | 34.73546 | -119.93267 | 31187 ft | 441 kts | 311° |
| 2026-04-20 02:46 | 34.75692 | -119.95933 | 31558 ft | 440 kts | 311° |
| 2026-04-20 02:46 | 34.77827 | -119.98587 | 31949 ft | 438 kts | 311° |
| 2026-04-20 02:47 | 34.79950 | -120.01227 | 32367 ft | 435 kts | 311° |
| 2026-04-20 02:47 | 34.82062 | -120.03856 | 32762 ft | 433 kts | 311° |
| 2026-04-20 02:47 | 34.84160 | -120.06470 | 33135 ft | 431 kts | 311° |
| 2026-04-20 02:47 | 34.86256 | -120.09083 | 33473 ft | 430 kts | 311° |
| 2026-04-20 02:48 | 34.88343 | -120.11689 | 33818 ft | 430 kts | 311° |
| 2026-04-20 02:48 | 34.90427 | -120.14291 | 34140 ft | 428 kts | 311° |
| 2026-04-20 02:48 | 34.92502 | -120.16885 | 34415 ft | 427 kts | 311° |
| 2026-04-20 02:48 | 34.94576 | -120.19478 | 34653 ft | 427 kts | 311° |
| 2026-04-20 02:49 | 34.96647 | -120.22071 | 34907 ft | 426 kts | 311° |
| 2026-04-20 02:49 | 34.98711 | -120.24657 | 35175 ft | 425 kts | 311° |
| 2026-04-20 02:49 | 35.00771 | -120.27239 | 35465 ft | 424 kts | 310° |
| 2026-04-20 02:49 | 35.02828 | -120.29820 | 35688 ft | 424 kts | 310° |
| 2026-04-20 02:50 | 35.04883 | -120.32400 | 35886 ft | 424 kts | 310° |
| 2026-04-20 02:50 | 35.06935 | -120.34979 | 36121 ft | 423 kts | 310° |
| 2026-04-20 02:50 | 35.08991 | -120.37548 | 36377 ft | 422 kts | 311° |
| 2026-04-20 02:50 | 35.11109 | -120.40028 | 36606 ft | 423 kts | 313° |
| 2026-04-20 02:51 | 35.13279 | -120.42455 | 36798 ft | 423 kts | 314° |
| 2026-04-20 02:51 | 35.15461 | -120.44861 | 37009 ft | 423 kts | 314° |
| 2026-04-20 02:51 | 35.17614 | -120.47237 | 37163 ft | 423 kts | 313° |
| 2026-04-20 02:51 | 35.19794 | -120.49655 | 37369 ft | 422 kts | 313° |
| 2026-04-20 02:52 | 35.21962 | -120.52072 | 37614 ft | 421 kts | 313° |
| 2026-04-20 02:52 | 35.24117 | -120.54487 | 37798 ft | 420 kts | 313° |
| 2026-04-20 02:52 | 35.26271 | -120.56908 | 37951 ft | 420 kts | 313° |
| 2026-04-20 02:53 | 35.30574 | -120.61756 | 37974 ft | 421 kts | 313° |
| 2026-04-20 02:53 | 35.34877 | -120.66610 | 37970 ft | 420 kts | 313° |
| 2026-04-20 02:54 | 35.39172 | -120.71461 | 37984 ft | 420 kts | 313° |
| 2026-04-20 02:54 | 35.43461 | -120.76314 | 37977 ft | 420 kts | 313° |
| 2026-04-20 02:55 | 35.47747 | -120.81168 | 37993 ft | 419 kts | 313° |